createdAt,value
2023-04-24T00:01:32.591Z,13.20
2023-04-24T00:04:00.806Z,12.90
2023-04-24T00:06:34.220Z,12.70
2023-04-24T00:09:02.343Z,12.60
2023-04-24T00:11:29.988Z,12.80
2023-04-24T00:13:58.220Z,12.80
2023-04-24T00:16:25.423Z,13.00
2023-04-24T00:18:53.857Z,13.50
2023-04-24T00:21:21.708Z,13.40
2023-04-24T00:23:49.262Z,13.40
2023-04-24T00:26:16.621Z,13.20
2023-04-24T00:28:43.999Z,13.10
2023-04-24T00:31:11.450Z,12.70
2023-04-24T00:33:38.695Z,12.50
2023-04-24T00:36:06.032Z,12.70
2023-04-24T00:38:33.197Z,13.00
2023-04-24T00:41:01.006Z,12.90
2023-04-24T00:43:28.139Z,13.00
2023-04-24T00:45:56.015Z,12.80
2023-04-24T00:48:24.261Z,13.20
2023-04-24T00:50:51.501Z,12.90
2023-04-24T00:53:18.677Z,12.90
2023-04-24T00:55:46.422Z,12.90
2023-04-24T00:58:14.043Z,12.80
2023-04-24T01:00:42.158Z,12.70
2023-04-24T01:03:09.891Z,13.00
2023-04-24T01:05:37.381Z,12.90
2023-04-24T01:08:04.658Z,12.80
2023-04-24T01:10:34.093Z,12.70
2023-04-24T01:13:01.481Z,12.70
2023-04-24T01:15:28.718Z,12.70
2023-04-24T01:17:55.854Z,12.70
2023-04-24T01:20:23.712Z,12.70
2023-04-24T01:22:50.895Z,12.60
2023-04-24T01:25:18.324Z,12.70
2023-04-24T01:27:45.847Z,12.70
2023-04-24T01:30:14.040Z,12.60
2023-04-24T01:32:45.569Z,12.60
2023-04-24T01:35:12.874Z,12.60
2023-04-24T01:37:40.109Z,12.50
2023-04-24T01:40:08.436Z,12.50
2023-04-24T01:42:36.225Z,12.50
2023-04-24T01:45:05.353Z,12.30
2023-04-24T01:47:34.905Z,11.70
2023-04-24T01:50:02.110Z,11.50
2023-04-24T01:52:32.288Z,12.00
2023-04-24T01:55:01.571Z,12.30
2023-04-24T01:57:31.926Z,12.30
2023-04-24T01:59:59.361Z,12.20
2023-04-24T02:02:28.718Z,12.10
2023-04-24T02:04:56.373Z,12.00
2023-04-24T02:07:23.801Z,12.20
2023-04-24T02:09:51.014Z,12.20
2023-04-24T02:12:18.608Z,12.00
2023-04-24T02:14:45.840Z,12.00
2023-04-24T02:17:14.265Z,12.00
2023-04-24T02:19:41.620Z,12.10
2023-04-24T02:22:09.322Z,11.80
2023-04-24T02:24:36.451Z,11.80
2023-04-24T02:27:03.953Z,11.90
2023-04-24T02:29:31.578Z,11.60
2023-04-24T02:31:58.645Z,11.80
2023-04-24T02:34:25.848Z,11.60
2023-04-24T02:36:54.930Z,12.10
2023-04-24T02:39:22.159Z,12.10
2023-04-24T02:41:49.278Z,12.20
2023-04-24T02:44:16.432Z,12.10
2023-04-24T02:46:43.641Z,12.20
2023-04-24T02:49:10.776Z,12.10
2023-04-24T02:51:41.777Z,12.20
2023-04-24T02:54:12.865Z,12.30
2023-04-24T02:56:40.015Z,12.10
2023-04-24T02:59:07.151Z,12.30
2023-04-24T03:01:34.733Z,12.20
2023-04-24T03:04:02.568Z,12.40
2023-04-24T03:06:29.987Z,12.40
2023-04-24T03:08:57.044Z,12.20
2023-04-24T03:11:24.328Z,12.10
2023-04-24T03:13:51.556Z,12.10
2023-04-24T03:16:18.716Z,12.00
2023-04-24T03:18:45.874Z,12.00
2023-04-24T03:21:13.344Z,12.10
2023-04-24T03:23:40.664Z,12.10
2023-04-24T03:26:07.778Z,12.30
2023-04-24T03:28:34.904Z,12.20
2023-04-24T03:31:22.385Z,12.20
2023-04-24T03:33:49.667Z,12.30
2023-04-24T03:36:16.725Z,12.40
2023-04-24T03:38:43.771Z,12.40
2023-04-24T03:41:10.908Z,12.70
2023-04-24T03:43:38.429Z,12.40
2023-04-24T03:46:05.670Z,12.50
2023-04-24T03:48:32.810Z,12.60
2023-04-24T03:50:59.862Z,12.80
2023-04-24T03:53:27.673Z,12.80
2023-04-24T03:55:54.917Z,13.00
2023-04-24T03:58:21.988Z,12.90
2023-04-24T04:00:49.222Z,13.20
2023-04-24T04:03:16.660Z,13.40
2023-04-24T04:05:44.018Z,13.10
2023-04-24T04:08:11.459Z,13.20
2023-04-24T04:10:38.596Z,13.20
2023-04-24T04:13:07.612Z,13.50
2023-04-24T04:15:34.790Z,13.50
2023-04-24T04:18:01.853Z,13.50
2023-04-24T04:20:29.291Z,13.70
2023-04-24T04:22:56.434Z,13.70
2023-04-24T04:25:24.305Z,13.70
2023-04-24T04:27:52.164Z,14.10
2023-04-24T04:30:19.594Z,14.10
2023-04-24T04:32:46.691Z,14.00
2023-04-24T04:35:13.928Z,14.30
2023-04-24T04:37:41.248Z,14.60
2023-04-24T04:40:12.744Z,14.30
2023-04-24T04:42:41.501Z,14.30
2023-04-24T04:45:12.600Z,14.40
2023-04-24T04:47:40.794Z,14.50
2023-04-24T04:50:08.312Z,14.40
2023-04-24T04:52:35.448Z,14.60
2023-04-24T04:55:02.823Z,14.70
2023-04-24T04:57:32.255Z,14.90
2023-04-24T04:59:59.334Z,15.00
2023-04-24T05:02:26.600Z,15.00
2023-04-24T05:04:54.042Z,15.00
2023-04-24T05:07:21.417Z,15.80
2023-04-24T05:09:48.576Z,15.80
2023-04-24T05:12:15.690Z,15.60
2023-04-24T05:14:42.956Z,15.20
2023-04-24T05:17:10.134Z,15.30
2023-04-24T05:19:39.060Z,15.80
2023-04-24T05:22:07.858Z,15.30
2023-04-24T05:24:35.657Z,15.60
2023-04-24T05:27:03.702Z,15.60
2023-04-24T05:29:32.385Z,15.50
2023-04-24T05:32:00.036Z,16.00
2023-04-24T05:34:27.188Z,16.50
2023-04-24T05:36:54.452Z,16.50
2023-04-24T05:39:21.628Z,16.70
2023-04-24T05:41:48.777Z,16.40
2023-04-24T05:44:15.856Z,16.40
2023-04-24T05:46:43.083Z,16.40
2023-04-24T05:49:10.304Z,17.40
2023-04-24T05:51:37.498Z,17.70
2023-04-24T05:54:04.870Z,17.50
2023-04-24T05:56:32.340Z,17.90
2023-04-24T05:58:59.443Z,17.10
2023-04-24T06:01:26.562Z,17.20
2023-04-24T06:03:54.633Z,17.40
2023-04-24T06:06:22.239Z,18.10
2023-04-24T06:08:49.432Z,17.80
2023-04-24T06:11:16.964Z,18.00
2023-04-24T06:13:44.101Z,18.70
2023-04-24T06:16:11.335Z,18.60
2023-04-24T06:18:38.493Z,18.80
2023-04-24T06:21:06.295Z,19.20
2023-04-24T06:23:34.132Z,19.80
2023-04-24T06:26:01.411Z,19.00
2023-04-24T06:28:28.542Z,18.60
2023-04-24T06:31:14.351Z,18.20
2023-04-24T06:33:41.772Z,18.10
2023-04-24T06:36:08.922Z,19.00
2023-04-24T06:38:36.182Z,18.90
2023-04-24T06:41:23.719Z,19.50
2023-04-24T06:43:51.127Z,19.80
2023-04-24T06:46:18.416Z,19.90
2023-04-24T06:48:45.664Z,20.10
2023-04-24T06:51:12.891Z,20.30
2023-04-24T06:53:40.088Z,19.90
2023-04-24T06:56:07.217Z,19.40
2023-04-24T06:58:34.443Z,19.60
2023-04-24T07:01:20.566Z,19.90
2023-04-24T07:03:48.301Z,19.50
2023-04-24T07:06:17.592Z,20.10
2023-04-24T07:08:44.867Z,19.70
2023-04-24T07:11:11.970Z,20.20
2023-04-24T07:13:42.965Z,20.00
2023-04-24T07:16:10.952Z,19.90
2023-04-24T07:18:38.504Z,20.20
2023-04-24T07:21:05.689Z,20.30
2023-04-24T07:23:32.768Z,20.50
2023-04-24T07:26:00.018Z,20.70
2023-04-24T07:28:27.262Z,21.00
2023-04-24T07:30:55.256Z,20.80
2023-04-24T07:33:22.484Z,21.30
2023-04-24T07:35:49.979Z,21.10
2023-04-24T07:38:17.291Z,20.90
2023-04-24T07:40:44.932Z,21.30
2023-04-24T07:43:12.944Z,21.00
2023-04-24T07:45:40.759Z,21.40
2023-04-24T07:48:10.083Z,21.60
2023-04-24T07:50:37.870Z,21.10
2023-04-24T07:53:04.959Z,20.90
2023-04-24T07:55:32.444Z,21.70
2023-04-24T07:57:59.603Z,21.10
2023-04-24T08:00:26.957Z,20.80
2023-04-24T08:02:54.479Z,21.00
2023-04-24T08:05:22.112Z,20.80
2023-04-24T08:08:08.008Z,22.10
2023-04-24T08:10:35.179Z,21.70
2023-04-24T08:13:03.087Z,22.50
2023-04-24T08:15:30.372Z,21.80
2023-04-24T08:17:59.209Z,22.30
2023-04-24T08:20:26.488Z,22.10
2023-04-24T08:22:53.660Z,23.20
2023-04-24T08:25:20.919Z,23.40
2023-04-24T08:27:48.076Z,24.60
2023-04-24T08:30:15.339Z,23.30
2023-04-24T08:32:42.823Z,22.50
2023-04-24T08:35:10.816Z,22.10
2023-04-24T08:37:38.490Z,23.40
2023-04-24T08:40:14.185Z,23.30
2023-04-24T08:42:44.185Z,23.60
2023-04-24T08:45:14.576Z,23.00
2023-04-24T08:47:43.341Z,23.50
2023-04-24T08:50:29.808Z,24.70
2023-04-24T08:52:58.188Z,27.80
2023-04-24T08:55:26.691Z,26.80
2023-04-24T08:57:54.838Z,27.80
2023-04-24T09:00:22.944Z,26.10
2023-04-24T09:02:51.736Z,25.70
2023-04-24T09:05:22.456Z,23.60
2023-04-24T09:07:57.370Z,26.20
2023-04-24T09:10:27.730Z,25.90
2023-04-24T09:12:56.137Z,24.40
2023-04-24T09:15:23.388Z,27.10
2023-04-24T09:17:51.110Z,27.80
2023-04-24T09:20:18.433Z,24.20
2023-04-24T09:22:46.713Z,23.70
2023-04-24T09:25:13.964Z,24.90
2023-04-24T09:27:46.077Z,26.00
2023-04-24T09:30:13.819Z,25.70
2023-04-24T09:32:41.721Z,24.20
2023-04-24T09:35:15.409Z,23.80
2023-04-24T09:37:49.996Z,24.60
2023-04-24T09:40:19.329Z,25.60
2023-04-24T09:42:55.481Z,25.40
2023-04-24T09:45:22.925Z,24.00
2023-04-24T09:47:56.826Z,25.20
2023-04-24T09:50:24.426Z,27.60
2023-04-24T09:53:11.848Z,24.00
2023-04-24T09:55:47.452Z,22.50
2023-04-24T09:58:14.576Z,23.20
2023-04-24T10:00:42.222Z,26.00
2023-04-24T10:03:09.633Z,30.60
2023-04-24T10:05:38.530Z,30.50
2023-04-24T10:08:11.565Z,26.00
2023-04-24T10:10:44.046Z,25.30
2023-04-24T10:13:12.579Z,26.10
2023-04-24T10:15:41.747Z,26.20
2023-04-24T10:18:10.369Z,27.40
2023-04-24T10:20:39.432Z,28.90
2023-04-24T10:23:07.079Z,31.00
2023-04-24T10:25:36.294Z,28.10
2023-04-24T10:28:04.351Z,28.70
2023-04-24T10:30:38.600Z,28.90
2023-04-24T10:33:07.844Z,25.50
2023-04-24T10:35:46.847Z,23.10
2023-04-24T10:38:17.909Z,24.60
2023-04-24T10:40:45.451Z,27.80
2023-04-24T10:43:19.717Z,29.20
2023-04-24T10:46:07.172Z,28.10
2023-04-24T10:48:35.305Z,25.40
2023-04-24T10:51:03.332Z,24.90
2023-04-24T10:53:31.968Z,26.10
2023-04-24T10:56:07.901Z,26.70
2023-04-24T10:58:46.195Z,28.60
2023-04-24T11:01:30.632Z,28.60
2023-04-24T11:03:59.924Z,26.20
2023-04-24T11:06:45.332Z,25.50
2023-04-24T11:09:17.460Z,25.00
2023-04-24T11:11:48.482Z,26.30
2023-04-24T11:14:16.551Z,25.10
2023-04-24T11:16:54.185Z,27.90
2023-04-24T11:19:26.482Z,27.80
2023-04-24T11:22:04.129Z,24.10
2023-04-24T11:24:40.459Z,23.70
2023-04-24T11:27:20.913Z,24.90
2023-04-24T11:30:02.274Z,24.60
2023-04-24T11:32:41.653Z,27.90
2023-04-24T11:35:17.821Z,28.40
2023-04-24T11:40:29.414Z,30.00
2023-04-24T11:42:56.798Z,30.40
2023-04-24T11:45:26.399Z,27.30
2023-04-24T11:47:54.197Z,26.10
2023-04-24T11:50:24.653Z,26.50
2023-04-24T11:52:52.281Z,29.70
2023-04-24T11:55:19.855Z,29.00
2023-04-24T11:57:49.486Z,26.80
2023-04-24T12:00:19.928Z,27.40
2023-04-24T12:02:47.963Z,27.00
2023-04-24T12:05:41.865Z,27.50
2023-04-24T12:08:09.254Z,26.60
2023-04-24T12:10:36.973Z,26.70
2023-04-24T12:13:04.835Z,29.60
2023-04-24T12:15:32.295Z,26.70
2023-04-24T12:18:00.317Z,26.90
2023-04-24T12:20:34.514Z,26.10
2023-04-24T12:23:02.783Z,27.60
2023-04-24T12:25:33.668Z,24.90
2023-04-24T12:28:07.274Z,25.40
2023-04-24T12:30:52.936Z,25.20
2023-04-24T12:33:23.439Z,25.40
2023-04-24T12:35:54.986Z,27.70
2023-04-24T12:38:27.700Z,26.90
2023-04-24T12:41:06.218Z,27.60
2023-04-24T12:43:34.420Z,29.20
2023-04-24T12:46:01.757Z,29.20
2023-04-24T12:48:29.761Z,28.80
2023-04-24T12:51:01.750Z,26.90
2023-04-24T12:53:30.687Z,24.20
2023-04-24T12:55:58.096Z,24.20
2023-04-24T12:58:25.657Z,24.80
2023-04-24T13:00:52.933Z,25.20
2023-04-24T13:03:21.060Z,25.60
2023-04-24T13:05:48.385Z,24.50
2023-04-24T13:08:15.682Z,25.50
2023-04-24T13:10:43.049Z,25.30
2023-04-24T13:13:10.478Z,24.50
2023-04-24T13:15:37.731Z,24.30
2023-04-24T13:18:05.064Z,24.40
2023-04-24T13:20:32.300Z,25.00
2023-04-24T13:22:59.435Z,23.90
2023-04-24T13:25:27.675Z,24.70
2023-04-24T13:27:54.871Z,25.80
2023-04-24T13:30:21.989Z,24.90
2023-04-24T13:32:49.391Z,25.70
2023-04-24T13:35:16.507Z,25.20
2023-04-24T13:37:43.576Z,23.70
2023-04-24T13:40:11.458Z,24.30
2023-04-24T13:42:38.767Z,25.10
2023-04-24T13:45:23.318Z,24.20
2023-04-24T13:47:52.451Z,23.60
2023-04-24T13:50:20.376Z,24.40
2023-04-24T13:52:47.657Z,25.00
2023-04-24T13:55:15.010Z,25.70
2023-04-24T13:57:42.084Z,26.00
2023-04-24T14:00:11.690Z,25.50
2023-04-24T14:02:39.351Z,25.20
2023-04-24T14:05:07.662Z,24.60
2023-04-24T14:07:35.041Z,26.00
2023-04-24T14:10:02.174Z,27.40
2023-04-24T14:12:31.867Z,25.60
2023-04-24T14:14:59.025Z,24.70
2023-04-24T14:17:26.215Z,25.20
2023-04-24T14:19:53.727Z,26.60
2023-04-24T14:22:21.298Z,27.00
2023-04-24T14:24:48.797Z,26.70
2023-04-24T14:27:15.852Z,25.00
2023-04-24T14:29:42.896Z,25.00
2023-04-24T14:32:10.119Z,24.80
2023-04-24T14:34:37.250Z,24.20
2023-04-24T14:37:04.318Z,24.40
2023-04-24T14:39:31.558Z,23.90
2023-04-24T14:41:58.653Z,23.30
2023-04-24T14:44:26.031Z,23.40
2023-04-24T14:46:53.219Z,23.80
2023-04-24T14:49:20.493Z,22.90
2023-04-24T14:51:47.590Z,22.30
2023-04-24T14:54:14.923Z,23.10
2023-04-24T14:56:42.154Z,22.20
2023-04-24T14:59:09.524Z,21.70
2023-04-24T15:01:36.666Z,21.50
2023-04-24T15:04:03.930Z,21.60
2023-04-24T15:06:32.946Z,21.50
2023-04-24T15:09:00.925Z,21.30
2023-04-24T15:11:28.650Z,21.40
2023-04-24T15:13:56.712Z,21.10
2023-04-24T15:16:25.496Z,21.20
2023-04-24T15:18:52.709Z,21.20
2023-04-24T15:21:19.850Z,21.30
2023-04-24T15:23:47.241Z,21.30
2023-04-24T15:26:14.730Z,20.80
2023-04-24T15:28:41.874Z,20.80
2023-04-24T15:31:09.610Z,20.90
2023-04-24T15:33:36.713Z,20.90
2023-04-24T15:36:03.907Z,21.00
2023-04-24T15:38:31.553Z,20.90
2023-04-24T15:40:58.730Z,20.90
2023-04-24T15:43:26.098Z,20.80
2023-04-24T15:45:53.300Z,20.80
2023-04-24T15:48:20.490Z,20.90
2023-04-24T15:50:47.544Z,20.60
2023-04-24T15:53:14.680Z,20.50
2023-04-24T15:55:41.873Z,20.60
2023-04-24T15:58:08.966Z,20.60
2023-04-24T16:00:37.277Z,20.40
2023-04-24T16:03:05.383Z,20.40
2023-04-24T16:05:34.603Z,20.40
2023-04-24T16:08:01.860Z,20.40
2023-04-24T16:10:29.053Z,20.30
2023-04-24T16:12:56.456Z,20.20
2023-04-24T16:15:23.679Z,20.20
2023-04-24T16:17:51.276Z,20.00
2023-04-24T16:20:18.943Z,20.10
2023-04-24T16:22:46.054Z,20.10
2023-04-24T16:25:13.614Z,20.00
2023-04-24T16:27:40.973Z,20.10
2023-04-24T16:30:08.748Z,19.90
2023-04-24T16:32:36.284Z,19.70
2023-04-24T16:35:03.534Z,19.80
2023-04-24T16:37:31.886Z,19.60
2023-04-24T16:39:59.071Z,19.50
2023-04-24T16:42:26.556Z,19.60
2023-04-24T16:44:53.849Z,19.70
2023-04-24T16:47:21.054Z,19.50
2023-04-24T16:49:49.742Z,19.40
2023-04-24T16:52:16.841Z,19.40
2023-04-24T16:54:44.115Z,19.40
2023-04-24T16:57:11.387Z,19.50
2023-04-24T16:59:38.722Z,19.40
2023-04-24T17:02:05.932Z,19.30
2023-04-24T17:04:35.962Z,18.80
2023-04-24T17:07:03.306Z,18.90
2023-04-24T17:09:30.874Z,18.80
2023-04-24T17:11:58.012Z,18.80
2023-04-24T17:14:26.699Z,18.90
2023-04-24T17:16:53.889Z,19.10
2023-04-24T17:19:21.452Z,18.90
2023-04-24T17:21:48.661Z,18.80
2023-04-24T17:24:15.970Z,18.90
2023-04-24T17:26:43.100Z,19.00
2023-04-24T17:29:10.752Z,18.80
2023-04-24T17:31:37.984Z,18.80
2023-04-24T17:34:05.348Z,18.50
2023-04-24T17:36:32.882Z,18.40
2023-04-24T17:39:00.024Z,18.30
2023-04-24T17:41:30.003Z,18.60
2023-04-24T17:43:57.171Z,18.60
2023-04-24T17:46:27.199Z,18.40
2023-04-24T17:48:54.586Z,18.40
2023-04-24T17:51:21.966Z,18.60
2023-04-24T17:53:49.384Z,18.50
2023-04-24T17:56:16.584Z,18.30
2023-04-24T17:58:43.841Z,18.40
2023-04-24T18:01:30.766Z,18.60
2023-04-24T18:03:58.311Z,18.60
2023-04-24T18:06:26.990Z,18.30
2023-04-24T18:08:54.244Z,18.20
2023-04-24T18:11:21.874Z,18.20
2023-04-24T18:13:49.738Z,18.30
2023-04-24T18:16:16.942Z,18.10
2023-04-24T18:18:44.231Z,18.20
2023-04-24T18:21:31.782Z,18.40
2023-04-24T18:24:00.539Z,18.20
2023-04-24T18:26:28.340Z,18.10
2023-04-24T18:28:55.579Z,18.20
2023-04-24T18:31:22.752Z,18.10
2023-04-24T18:33:49.974Z,18.30
2023-04-24T18:36:17.426Z,17.90
2023-04-24T18:38:44.509Z,17.90
2023-04-24T18:41:12.447Z,17.80
2023-04-24T18:43:39.553Z,17.70
2023-04-24T18:46:06.628Z,17.50
2023-04-24T18:48:33.731Z,17.60
2023-04-24T18:51:00.984Z,17.50
2023-04-24T18:53:28.104Z,17.60
2023-04-24T18:55:55.225Z,17.20
2023-04-24T18:58:22.361Z,17.00
2023-04-24T19:00:49.556Z,16.90
2023-04-24T19:03:16.966Z,16.90
2023-04-24T19:05:44.206Z,16.90
2023-04-24T19:08:11.447Z,16.80
2023-04-24T19:10:38.571Z,16.60
2023-04-24T19:13:06.072Z,16.50
2023-04-24T19:15:33.904Z,16.90
2023-04-24T19:18:01.206Z,17.00
2023-04-24T19:20:28.584Z,17.10
2023-04-24T19:22:55.901Z,17.10
2023-04-24T19:25:23.194Z,17.10
2023-04-24T19:27:50.361Z,16.60
2023-04-24T19:30:17.525Z,16.40
2023-04-24T19:32:44.729Z,16.30
2023-04-24T19:35:11.890Z,16.20
2023-04-24T19:37:39.248Z,16.10
2023-04-24T19:40:07.376Z,16.10
2023-04-24T19:42:43.075Z,16.20
2023-04-24T19:45:12.830Z,16.30
2023-04-24T19:47:40.079Z,16.00
2023-04-24T19:50:08.120Z,16.00
2023-04-24T19:52:35.518Z,16.30
2023-04-24T19:55:02.710Z,16.40
2023-04-24T19:57:31.232Z,16.80
2023-04-24T19:59:58.312Z,16.70
2023-04-24T20:02:26.095Z,16.30
2023-04-24T20:04:53.596Z,16.30
2023-04-24T20:07:21.339Z,16.30
2023-04-24T20:09:48.429Z,16.20
2023-04-24T20:12:16.263Z,16.00
2023-04-24T20:14:43.361Z,16.00
2023-04-24T20:17:10.565Z,16.10
2023-04-24T20:19:37.891Z,15.70
2023-04-24T20:22:05.059Z,15.50
2023-04-24T20:24:32.333Z,15.30
2023-04-24T20:26:59.454Z,15.50
2023-04-24T20:29:26.600Z,15.70
2023-04-24T20:31:53.936Z,16.00
2023-04-24T20:34:22.131Z,15.90
2023-04-24T20:36:49.886Z,15.70
2023-04-24T20:39:17.309Z,15.80
2023-04-24T20:41:46.400Z,15.90
2023-04-24T20:44:13.633Z,15.90
2023-04-24T20:46:40.877Z,15.90
2023-04-24T20:49:08.124Z,15.70
2023-04-24T20:51:36.871Z,15.60
2023-04-24T20:54:04.193Z,15.40
2023-04-24T20:56:31.607Z,15.50
2023-04-24T20:58:58.779Z,15.30
2023-04-24T21:01:26.006Z,15.60
2023-04-24T21:03:53.640Z,15.50
2023-04-24T21:06:21.617Z,15.40
2023-04-24T21:08:48.814Z,15.50
2023-04-24T21:11:15.948Z,15.20
2023-04-24T21:13:43.215Z,15.00
2023-04-24T21:16:10.360Z,14.90
2023-04-24T21:18:41.336Z,15.00
2023-04-24T21:21:09.402Z,15.10
2023-04-24T21:23:36.714Z,14.90
2023-04-24T21:26:04.444Z,14.90
2023-04-24T21:28:31.772Z,14.80
2023-04-24T21:30:58.888Z,14.70
2023-04-24T21:33:26.288Z,14.50
2023-04-24T21:35:53.424Z,14.90
2023-04-24T21:38:23.314Z,14.50
2023-04-24T21:40:51.714Z,14.50
2023-04-24T21:43:21.811Z,14.40
2023-04-24T21:45:54.841Z,14.40
2023-04-24T21:48:22.061Z,14.60
2023-04-24T21:50:49.251Z,14.50
2023-04-24T21:53:16.376Z,14.40
2023-04-24T21:55:44.750Z,14.50
2023-04-24T21:58:12.859Z,14.50
2023-04-24T22:00:39.945Z,14.30
2023-04-24T22:03:07.236Z,14.50
2023-04-24T22:05:34.575Z,14.70
2023-04-24T22:08:01.725Z,14.60
2023-04-24T22:10:29.083Z,14.80
2023-04-24T22:12:56.327Z,14.80
2023-04-24T22:15:23.505Z,14.90
2023-04-24T22:17:52.796Z,14.40
2023-04-24T22:20:20.418Z,14.80
2023-04-24T22:22:48.451Z,14.80
2023-04-24T22:25:15.571Z,14.70
2023-04-24T22:27:42.709Z,15.10
2023-04-24T22:30:10.361Z,14.90
2023-04-24T22:32:37.920Z,14.80
2023-04-24T22:35:06.094Z,14.70
2023-04-24T22:37:33.281Z,14.80
2023-04-24T22:40:01.419Z,14.70
2023-04-24T22:42:31.930Z,14.70
2023-04-24T22:44:59.000Z,14.40
2023-04-24T22:47:26.129Z,14.60
2023-04-24T22:49:53.927Z,14.70
2023-04-24T22:52:21.838Z,14.60
2023-04-24T22:54:48.979Z,14.60
2023-04-24T22:57:16.217Z,14.40
2023-04-24T22:59:43.787Z,14.60
2023-04-24T23:02:10.937Z,14.50
2023-04-24T23:04:38.097Z,14.60
2023-04-24T23:07:05.118Z,14.40
2023-04-24T23:09:32.319Z,14.40
2023-04-24T23:11:59.468Z,14.60
2023-04-24T23:14:27.497Z,14.40
2023-04-24T23:16:54.781Z,14.10
2023-04-24T23:19:21.873Z,14.20
2023-04-24T23:21:50.087Z,14.00
2023-04-24T23:24:17.363Z,14.00
2023-04-24T23:26:44.522Z,14.20
2023-04-24T23:29:11.569Z,14.30
2023-04-24T23:31:38.629Z,14.10
2023-04-24T23:34:06.020Z,14.50
2023-04-24T23:36:33.254Z,14.20
2023-04-24T23:39:01.314Z,13.80
2023-04-24T23:41:28.576Z,13.90
2023-04-24T23:43:55.728Z,13.70
2023-04-24T23:46:23.044Z,13.70
2023-04-24T23:48:50.268Z,13.50
2023-04-24T23:51:17.868Z,13.50
2023-04-24T23:53:45.229Z,13.50
2023-04-24T23:56:12.482Z,13.70
2023-04-24T23:58:39.712Z,14.30
